This is the latest recevied weather packets stored in our database for station/object SP2WM. If no packets are shown the sender has not sent any weather packets the latest 10 day(s).
| Time | Temp. | Humidity | Pressure | Rain* | Wind** | Luminosity | Snow |
|---|---|---|---|---|---|---|---|
| 1777507826 | -1.67° C | 76% | 1028.1 hPa | 0 mm | - | - | - |
| 1777506629 | -1.67° C | 75% | 1027.9 hPa | 0 mm | - | - | - |
| 1777502436 | 0° C | 67% | 1028 hPa | 0 mm | - | - | - |
| 1777498224 | 1.67° C | 63% | 1027.8 hPa | 0 mm | - | - | - |
| 1777496431 | 2.22° C | 64% | 1027.8 hPa | 0 mm | - | - | - |
| 1777494026 | 2.78° C | 63% | 1027.5 hPa | 0 mm | - | - | - |
| 1777492231 | 3.33° C | 56% | 1027.4 hPa | 0 mm | - | - | - |
| 1777490427 | 5° C | 51% | 1027.2 hPa | 0 mm | - | - | - |
| 1777489830 | 5.56° C | 50% | 1027.1 hPa | 0 mm | - | - | - |
| 1777480838 | 11.67° C | 33% | 1026.4 hPa | 0 mm | - | - | - |
| 1777479037 | 12.22° C | 32% | 1026.4 hPa | 0 mm | - | - | - |
| 1777476641 | 12.22° C | 31% | 1026.4 hPa | 0 mm | - | - | - |
| 1777468237 | 13.89° C | 29% | 1026.2 hPa | 0 mm | - | - | - |
| 1777465223 | 13.33° C | 30% | 1026.3 hPa | 0 mm | - | - | - |
| 1777464623 | 12.22° C | 31% | 1026.4 hPa | 0 mm | - | - | - |
| 1777462227 | 13.89° C | 31% | 1026.3 hPa | 0 mm | - | - | - |
| 1777461628 | 13.33° C | 30% | 1026.4 hPa | 0 mm | - | - | - |
| 1777458634 | 11.67° C | 35% | 1026.4 hPa | 0 mm | - | - | - |
| 1777458034 | 12.22° C | 33% | 1026.5 hPa | 0 mm | - | - | - |
| 1777457433 | 11.67° C | 34% | 1026.4 hPa | 0 mm | - | - | - |
| 1777455626 | 10° C | 42% | 1026.6 hPa | 0 mm | - | - | - |
| 1777455025 | 9.44° C | 44% | 1026.8 hPa | 0 mm | - | - | - |
| 1777454425 | 10° C | 42% | 1026.4 hPa | 0 mm | - | - | - |
| 1777453824 | 10.56° C | 40% | 1026.5 hPa | 0 mm | - | - | - |
| 1777453225 | 8.33° C | 44% | 1026.6 hPa | 0 mm | - | - | - |
* Rain latest hour (hover to see other rain measurements)
** Current wind speed in m/s (hover to see current wind gust speed)